createdAt,value
2022-11-16T00:02:14.694Z,13.18
2022-11-16T00:04:41.851Z,11.98
2022-11-16T00:07:08.603Z,12.65
2022-11-16T00:09:35.442Z,12.43
2022-11-16T00:12:04.752Z,11.80
2022-11-16T00:14:34.126Z,12.63
2022-11-16T00:17:01.344Z,12.93
2022-11-16T00:19:28.749Z,13.52
2022-11-16T00:21:55.523Z,12.93
2022-11-16T00:24:23.563Z,12.23
2022-11-16T00:26:53.030Z,13.00
2022-11-16T00:29:22.743Z,12.10
2022-11-16T00:31:50.561Z,12.52
2022-11-16T00:34:18.342Z,13.77
2022-11-16T00:36:45.835Z,13.57
2022-11-16T00:39:14.507Z,13.43
2022-11-16T00:41:42.475Z,14.10
2022-11-16T00:44:10.050Z,13.70
2022-11-16T00:46:37.022Z,13.68
2022-11-16T00:49:05.473Z,13.90
2022-11-16T00:51:33.386Z,14.18
2022-11-16T00:54:00.533Z,13.43
2022-11-16T00:56:27.462Z,13.25
2022-11-16T00:58:54.108Z,13.85
2022-11-16T01:01:20.865Z,12.88
2022-11-16T01:03:47.999Z,13.43
2022-11-16T01:06:15.925Z,14.10
2022-11-16T01:08:43.656Z,13.57
2022-11-16T01:11:31.401Z,14.18
2022-11-16T01:13:58.109Z,13.80
2022-11-16T01:16:25.143Z,14.63
2022-11-16T01:18:54.191Z,14.75
2022-11-16T01:21:22.059Z,13.27
2022-11-16T01:23:49.000Z,14.82
2022-11-16T01:26:15.946Z,14.10
2022-11-16T01:28:42.670Z,14.63
2022-11-16T01:31:10.643Z,13.45
2022-11-16T01:33:37.859Z,16.33
2022-11-16T01:36:10.619Z,17.15
2022-11-16T01:38:37.433Z,16.67
2022-11-16T01:41:04.189Z,15.80
2022-11-16T01:43:59.824Z,16.45
2022-11-16T01:46:27.917Z,15.77
2022-11-16T01:49:02.149Z,16.20
2022-11-16T01:51:29.711Z,16.23
2022-11-16T01:53:57.678Z,16.85
2022-11-16T01:56:25.610Z,16.27
2022-11-16T01:58:53.490Z,16.27
2022-11-16T02:01:20.281Z,15.32
2022-11-16T02:03:47.023Z,16.40
2022-11-16T02:06:22.608Z,16.42
2022-11-16T02:11:54.803Z,15.10
2022-11-16T02:14:30.401Z,15.10
2022-11-16T02:19:32.547Z,14.93
2022-11-16T02:22:27.196Z,14.52
2022-11-16T02:24:56.681Z,14.18
2022-11-16T02:27:34.194Z,14.80
2022-11-16T02:30:01.673Z,15.35
2022-11-16T02:32:46.138Z,14.98
2022-11-16T02:35:25.337Z,15.50
2022-11-16T02:38:01.153Z,15.82
2022-11-16T02:40:31.743Z,16.40
2022-11-16T02:43:07.157Z,16.38
2022-11-16T02:45:40.721Z,15.57
2022-11-16T02:48:14.914Z,16.33
2022-11-16T02:50:42.739Z,16.02
2022-11-16T02:53:09.679Z,15.85
2022-11-16T02:55:36.826Z,15.27
2022-11-16T02:58:09.512Z,15.35
2022-11-16T03:00:43.831Z,16.00
2022-11-16T03:03:29.528Z,15.50
2022-11-16T03:06:15.062Z,15.25
2022-11-16T03:08:46.278Z,14.63
2022-11-16T03:11:32.646Z,15.45
2022-11-16T03:14:03.435Z,16.05
2022-11-16T03:16:36.566Z,15.00
2022-11-16T03:19:08.705Z,16.08
2022-11-16T03:21:49.791Z,15.20
2022-11-16T03:24:16.706Z,16.33
2022-11-16T03:27:05.380Z,16.00
2022-11-16T03:29:40.688Z,15.43
2022-11-16T03:32:27.419Z,16.02
2022-11-16T03:35:02.938Z,15.77
2022-11-16T03:37:31.175Z,15.52
2022-11-16T03:40:01.181Z,15.65
2022-11-16T03:42:28.441Z,16.48
2022-11-16T03:44:55.788Z,15.75
2022-11-16T03:47:23.303Z,15.48
2022-11-16T03:49:49.983Z,16.17
2022-11-16T03:52:17.811Z,16.00
2022-11-16T03:54:44.456Z,15.95
2022-11-16T03:57:15.546Z,15.45
2022-11-16T03:59:43.325Z,15.18
2022-11-16T04:02:10.726Z,14.45
2022-11-16T04:04:56.582Z,14.85
2022-11-16T04:07:42.014Z,13.57
2022-11-16T04:10:29.031Z,13.63
2022-11-16T04:13:14.612Z,13.40
2022-11-16T04:16:00.110Z,13.45
2022-11-16T04:18:45.491Z,14.05
2022-11-16T04:21:49.885Z,14.98
2022-11-16T04:24:23.456Z,14.48
2022-11-16T04:27:13.657Z,14.00
2022-11-16T04:29:40.786Z,14.23
2022-11-16T04:32:27.096Z,14.57
2022-11-16T04:35:12.974Z,15.90
2022-11-16T04:37:48.922Z,15.63
2022-11-16T04:40:16.991Z,14.68
2022-11-16T04:42:44.091Z,14.90
2022-11-16T04:45:29.199Z,15.43
2022-11-16T04:47:55.916Z,16.55
2022-11-16T04:50:22.689Z,17.98
2022-11-16T04:52:49.616Z,18.73
2022-11-16T04:55:16.488Z,17.52
2022-11-16T04:57:43.161Z,18.25
2022-11-16T05:00:10.609Z,16.58
2022-11-16T05:02:37.297Z,17.70
2022-11-16T05:05:04.231Z,17.33
2022-11-16T05:07:31.307Z,18.65
2022-11-16T05:09:58.042Z,18.05
2022-11-16T05:12:26.774Z,17.73
2022-11-16T05:14:55.266Z,17.70
2022-11-16T05:17:22.974Z,17.40
2022-11-16T05:20:08.482Z,17.27
2022-11-16T05:22:36.204Z,16.77
2022-11-16T05:25:03.944Z,17.85
2022-11-16T05:27:31.565Z,17.35
2022-11-16T05:29:58.759Z,17.52
2022-11-16T05:32:26.657Z,18.33
2022-11-16T05:34:54.095Z,18.35
2022-11-16T05:37:21.291Z,18.48
2022-11-16T05:39:48.233Z,18.80
2022-11-16T05:42:15.249Z,19.05
2022-11-16T05:44:41.920Z,19.25
2022-11-16T05:47:08.591Z,18.88
2022-11-16T05:49:35.300Z,18.65
2022-11-16T05:52:01.970Z,19.13
2022-11-16T05:54:28.654Z,19.20
2022-11-16T05:56:55.353Z,18.55
2022-11-16T05:59:23.212Z,18.98
2022-11-16T06:01:51.114Z,18.15
2022-11-16T06:04:24.147Z,17.70
2022-11-16T06:06:50.930Z,18.65
2022-11-16T06:09:17.717Z,17.85
2022-11-16T06:11:45.553Z,17.92
2022-11-16T06:14:12.215Z,18.58
2022-11-16T06:16:38.915Z,18.23
2022-11-16T06:19:05.806Z,17.20
2022-11-16T06:21:33.034Z,18.20
2022-11-16T06:23:59.957Z,18.08
2022-11-16T06:26:26.683Z,18.83
2022-11-16T06:28:54.852Z,17.13
2022-11-16T06:31:22.085Z,18.48
2022-11-16T06:33:48.765Z,18.90
2022-11-16T06:36:15.441Z,18.42
2022-11-16T06:38:42.143Z,17.75
2022-11-16T06:41:09.088Z,17.63
2022-11-16T06:43:35.766Z,19.23
2022-11-16T06:46:02.513Z,20.05
2022-11-16T06:48:30.960Z,18.90
2022-11-16T06:50:57.753Z,18.42
2022-11-16T06:53:28.925Z,17.95
2022-11-16T06:56:00.508Z,19.20
2022-11-16T06:58:30.031Z,20.15
2022-11-16T07:00:56.935Z,18.35
2022-11-16T07:03:23.969Z,17.83
2022-11-16T07:05:50.723Z,18.23
2022-11-16T07:08:17.437Z,18.98
2022-11-16T07:10:44.162Z,16.40
2022-11-16T07:13:10.972Z,18.17
2022-11-16T07:15:37.611Z,18.38
2022-11-16T07:18:06.246Z,18.05
2022-11-16T07:20:33.890Z,17.52
2022-11-16T07:23:02.243Z,18.85
2022-11-16T07:25:29.324Z,18.05
2022-11-16T07:27:58.672Z,18.67
2022-11-16T07:30:26.153Z,20.17
2022-11-16T07:32:57.822Z,19.08
2022-11-16T07:35:24.736Z,19.70
2022-11-16T07:37:51.438Z,20.75
2022-11-16T07:40:19.160Z,20.00
2022-11-16T07:42:45.987Z,20.30
2022-11-16T07:45:12.713Z,20.08
2022-11-16T07:47:39.689Z,21.90
2022-11-16T07:50:07.036Z,21.00
2022-11-16T07:52:33.813Z,22.77
2022-11-16T07:55:01.728Z,22.45
2022-11-16T07:57:28.615Z,21.98
2022-11-16T07:59:55.388Z,22.80
2022-11-16T08:02:22.152Z,23.10
2022-11-16T08:04:48.993Z,22.60
2022-11-16T08:07:16.543Z,22.20
2022-11-16T08:09:43.796Z,25.48
2022-11-16T08:12:10.523Z,23.20
2022-11-16T08:14:37.239Z,22.58
2022-11-16T08:17:05.250Z,22.23
2022-11-16T08:19:31.944Z,23.85
2022-11-16T08:21:58.614Z,22.33
2022-11-16T08:24:25.416Z,23.67
2022-11-16T08:26:52.167Z,23.40
2022-11-16T08:29:18.922Z,20.17
2022-11-16T08:31:46.046Z,21.95
2022-11-16T08:34:13.884Z,21.70
2022-11-16T08:36:40.644Z,20.77
2022-11-16T08:39:07.647Z,20.92
2022-11-16T08:41:35.950Z,25.65
2022-11-16T08:44:02.687Z,20.00
2022-11-16T08:46:30.145Z,19.98
2022-11-16T08:48:57.868Z,17.95
2022-11-16T08:51:25.380Z,19.05
2022-11-16T08:53:58.968Z,18.30
2022-11-16T08:56:27.154Z,20.80
2022-11-16T08:58:58.601Z,18.58
2022-11-16T09:01:28.248Z,18.00
2022-11-16T09:03:55.493Z,17.48
2022-11-16T09:06:23.796Z,19.52
2022-11-16T09:08:50.641Z,17.85
2022-11-16T09:11:20.513Z,16.85
2022-11-16T09:13:48.567Z,17.90
2022-11-16T09:16:16.805Z,17.55
2022-11-16T09:18:50.912Z,17.40
2022-11-16T09:21:19.203Z,16.55
2022-11-16T09:23:46.628Z,17.65
2022-11-16T09:26:13.783Z,16.48
2022-11-16T09:28:40.659Z,18.02
2022-11-16T09:31:08.022Z,17.50
2022-11-16T09:33:35.105Z,17.17
2022-11-16T09:36:07.085Z,18.23
2022-11-16T09:39:17.809Z,17.10
2022-11-16T09:41:42.755Z,16.25
2022-11-16T09:44:27.684Z,16.15
2022-11-16T09:46:57.356Z,16.77
2022-11-16T09:49:47.435Z,17.50
2022-11-16T09:52:33.361Z,16.17
2022-11-16T09:55:21.614Z,15.75
2022-11-16T09:57:50.109Z,16.55
2022-11-16T10:00:22.672Z,16.83
2022-11-16T10:03:06.299Z,17.25
2022-11-16T10:05:47.786Z,17.05
2022-11-16T10:08:37.618Z,17.73
2022-11-16T10:11:25.026Z,17.65
2022-11-16T10:14:17.525Z,17.90
2022-11-16T10:17:08.929Z,17.85
2022-11-16T10:19:50.876Z,17.60
2022-11-16T10:22:41.728Z,19.60
2022-11-16T10:25:13.983Z,18.75
2022-11-16T10:28:02.131Z,18.77
2022-11-16T10:30:29.923Z,20.38
2022-11-16T10:33:11.457Z,19.40
2022-11-16T10:35:46.181Z,19.50
2022-11-16T10:38:17.040Z,19.02
2022-11-16T10:40:49.564Z,19.13
2022-11-16T10:43:22.562Z,19.45
2022-11-16T10:45:57.943Z,18.63
2022-11-16T10:48:41.228Z,18.55
2022-11-16T10:51:09.460Z,18.45
2022-11-16T10:53:38.834Z,19.90
2022-11-16T10:56:14.433Z,16.98
2022-11-16T11:01:41.431Z,17.52
2022-11-16T11:04:18.433Z,16.08
2022-11-16T11:06:47.696Z,18.25
2022-11-16T11:09:21.565Z,16.38
2022-11-16T11:12:31.439Z,18.20
2022-11-16T11:15:26.270Z,18.35
2022-11-16T11:18:11.944Z,16.60
2022-11-16T11:20:44.751Z,14.90
2022-11-16T11:23:19.510Z,14.38
2022-11-16T11:25:57.957Z,14.93
2022-11-16T11:28:26.504Z,15.13
2022-11-16T11:30:59.055Z,14.27
2022-11-16T11:33:51.267Z,15.38
2022-11-16T11:36:43.101Z,13.45
2022-11-16T11:39:12.739Z,12.85
2022-11-16T11:41:43.973Z,13.43
2022-11-16T11:44:13.511Z,14.15
2022-11-16T11:49:54.111Z,12.23
2022-11-16T11:52:34.344Z,12.30
2022-11-16T11:55:02.823Z,11.75
2022-11-16T11:57:33.229Z,12.13
2022-11-16T12:00:01.685Z,13.55
2022-11-16T12:02:43.450Z,12.43
2022-11-16T12:05:22.584Z,11.65
2022-11-16T12:08:06.213Z,13.02
2022-11-16T12:10:41.782Z,12.95
2022-11-16T12:13:20.808Z,12.90
2022-11-16T12:16:05.246Z,14.55
2022-11-16T12:18:58.984Z,13.68
2022-11-16T12:21:43.713Z,14.18
2022-11-16T12:24:57.175Z,13.00
2022-11-16T12:28:04.070Z,13.82
2022-11-16T12:33:16.739Z,11.40
2022-11-16T12:36:02.620Z,11.18
2022-11-16T12:39:05.482Z,12.10
2022-11-16T12:42:02.266Z,11.48
2022-11-16T12:44:38.009Z,11.00
2022-11-16T12:47:29.429Z,10.27
2022-11-16T12:50:41.575Z,11.07
2022-11-16T12:53:26.552Z,10.20
2022-11-16T12:56:30.638Z,10.48
2022-11-16T12:59:16.153Z,10.73
2022-11-16T13:02:05.510Z,10.60
2022-11-16T13:04:38.439Z,11.35
2022-11-16T13:07:12.053Z,11.27
2022-11-16T13:09:46.752Z,11.98
2022-11-16T13:12:18.830Z,12.48
2022-11-16T13:14:48.679Z,14.00
2022-11-16T13:17:22.004Z,14.55
2022-11-16T13:20:20.848Z,14.93
2022-11-16T13:23:07.139Z,14.35
2022-11-16T13:25:43.508Z,13.32
2022-11-16T13:28:36.668Z,12.95
2022-11-16T13:31:11.292Z,13.18
2022-11-16T13:33:50.616Z,12.40
2022-11-16T13:36:43.575Z,12.77
2022-11-16T13:39:17.056Z,12.38
2022-11-16T13:42:05.479Z,13.07
2022-11-16T13:44:33.190Z,11.75
2022-11-16T13:47:04.371Z,11.18
2022-11-16T13:49:35.627Z,10.88
2022-11-16T13:52:23.184Z,10.68
2022-11-16T13:54:54.377Z,11.55
2022-11-16T13:57:21.707Z,11.63
2022-11-16T13:59:56.845Z,11.98
2022-11-16T14:02:33.350Z,12.05
2022-11-16T14:05:47.014Z,12.93
2022-11-16T14:08:19.828Z,11.68
2022-11-16T14:10:52.504Z,11.77
2022-11-16T14:13:46.310Z,11.30
2022-11-16T14:16:21.899Z,11.60
2022-11-16T14:21:24.932Z,10.93
2022-11-16T14:24:10.716Z,12.25
2022-11-16T14:26:52.639Z,12.27
2022-11-16T14:29:38.226Z,11.95
2022-11-16T14:32:36.998Z,12.30
2022-11-16T14:35:23.008Z,9.25
2022-11-16T14:37:57.984Z,7.85
2022-11-16T14:40:25.281Z,7.70
2022-11-16T14:43:16.013Z,7.68
2022-11-16T14:45:48.785Z,7.68
2022-11-16T14:48:18.175Z,8.13
2022-11-16T14:50:58.901Z,7.45
2022-11-16T14:53:27.274Z,7.28
2022-11-16T14:56:09.798Z,7.78
2022-11-16T14:58:37.280Z,7.95
2022-11-16T15:01:07.772Z,7.50
2022-11-16T15:03:41.069Z,8.90
2022-11-16T15:06:08.366Z,9.27
2022-11-16T15:08:42.744Z,8.73
2022-11-16T15:11:21.906Z,18.15
2022-11-16T15:13:49.067Z,12.10
2022-11-16T15:16:20.047Z,12.82
2022-11-16T15:19:01.153Z,9.65
2022-11-16T15:21:28.603Z,9.13
2022-11-16T15:26:43.380Z,7.97
2022-11-16T15:29:16.668Z,6.70
2022-11-16T15:31:43.449Z,7.35
2022-11-16T15:34:20.343Z,6.78
2022-11-16T15:36:48.652Z,6.22
2022-11-16T15:39:25.560Z,6.53
2022-11-16T15:41:58.785Z,6.78
2022-11-16T15:44:30.988Z,6.65
2022-11-16T15:46:58.187Z,6.15
2022-11-16T15:49:30.145Z,6.13
2022-11-16T15:51:58.907Z,6.03
2022-11-16T15:54:53.761Z,5.75
2022-11-16T15:57:22.954Z,5.80
2022-11-16T15:59:54.521Z,5.70
2022-11-16T16:02:24.893Z,5.57
2022-11-16T16:04:51.830Z,5.95
2022-11-16T16:07:39.233Z,6.10
2022-11-16T16:10:19.077Z,5.55
2022-11-16T16:13:00.137Z,6.70
2022-11-16T16:15:26.839Z,5.35
2022-11-16T16:17:54.435Z,5.40
2022-11-16T16:20:24.375Z,5.68
2022-11-16T16:22:52.033Z,5.68
2022-11-16T16:25:29.146Z,5.85
2022-11-16T16:27:56.079Z,6.30
2022-11-16T16:30:22.837Z,5.50
2022-11-16T16:32:50.406Z,5.57
2022-11-16T16:35:20.070Z,5.57
2022-11-16T16:38:00.954Z,5.90
2022-11-16T16:40:28.822Z,5.22
2022-11-16T16:42:56.441Z,5.97
2022-11-16T16:45:43.871Z,5.78
2022-11-16T16:48:14.204Z,6.28
2022-11-16T16:50:40.892Z,6.38
2022-11-16T16:53:10.517Z,6.68
2022-11-16T16:55:37.781Z,6.63
2022-11-16T16:58:05.560Z,7.32
2022-11-16T17:00:32.294Z,7.53
2022-11-16T17:02:59.025Z,8.77
2022-11-16T17:05:26.382Z,8.32
2022-11-16T17:07:56.407Z,8.40
2022-11-16T17:10:23.212Z,8.80
2022-11-16T17:12:52.905Z,8.75
2022-11-16T17:15:19.770Z,9.32
2022-11-16T17:17:46.712Z,9.85
2022-11-16T17:20:13.622Z,9.38
2022-11-16T17:22:42.065Z,9.63
2022-11-16T17:25:09.845Z,10.73
2022-11-16T17:27:36.524Z,10.80
2022-11-16T17:30:03.999Z,12.05
2022-11-16T17:32:30.720Z,11.52
2022-11-16T17:34:57.437Z,11.30
2022-11-16T17:37:24.158Z,11.60
2022-11-16T17:39:50.833Z,12.07
2022-11-16T17:42:17.438Z,11.60
2022-11-16T17:44:44.165Z,12.93
2022-11-16T17:47:10.862Z,12.07
2022-11-16T17:49:37.562Z,13.20
2022-11-16T17:52:04.966Z,11.98
2022-11-16T17:54:31.841Z,12.15
2022-11-16T17:56:58.523Z,13.10
2022-11-16T17:59:29.510Z,13.07
2022-11-16T18:01:57.849Z,12.75
2022-11-16T18:04:24.785Z,13.65
2022-11-16T18:06:51.705Z,12.50
2022-11-16T18:09:18.751Z,13.25
2022-11-16T18:11:45.538Z,13.35
2022-11-16T18:14:12.204Z,13.75
2022-11-16T18:16:42.246Z,13.35
2022-11-16T18:19:10.021Z,13.02
2022-11-16T18:21:41.232Z,12.73
2022-11-16T18:24:08.727Z,13.93
2022-11-16T18:26:35.900Z,12.52
2022-11-16T18:29:02.660Z,12.70
2022-11-16T18:31:29.837Z,13.00
2022-11-16T18:33:56.632Z,12.73
2022-11-16T18:36:23.385Z,12.15
2022-11-16T18:38:50.669Z,12.77
2022-11-16T18:41:20.337Z,12.77
2022-11-16T18:43:58.568Z,12.63
2022-11-16T18:46:27.933Z,12.73
2022-11-16T18:48:55.629Z,13.00
2022-11-16T18:51:23.933Z,13.85
2022-11-16T18:53:50.994Z,13.73
2022-11-16T18:56:18.322Z,13.68
2022-11-16T18:58:53.398Z,12.82
2022-11-16T19:01:25.483Z,13.95
2022-11-16T19:03:53.448Z,13.48
2022-11-16T19:06:21.397Z,13.60
2022-11-16T19:08:55.880Z,13.25
2022-11-16T19:11:24.001Z,14.37
2022-11-16T19:13:56.520Z,14.23
2022-11-16T19:16:24.697Z,13.45
2022-11-16T19:18:51.577Z,13.00
2022-11-16T19:21:18.757Z,13.57
2022-11-16T19:23:47.816Z,14.18
2022-11-16T19:26:16.333Z,13.45
2022-11-16T19:28:44.962Z,13.13
2022-11-16T19:31:17.247Z,13.30
2022-11-16T19:33:45.078Z,13.43
2022-11-16T19:36:18.214Z,13.05
2022-11-16T19:38:48.097Z,11.95
2022-11-16T19:41:16.540Z,11.15
2022-11-16T19:43:43.286Z,12.23
2022-11-16T19:46:18.181Z,11.25
2022-11-16T19:48:47.282Z,11.40
2022-11-16T19:51:16.540Z,12.43
2022-11-16T19:53:43.568Z,10.80
2022-11-16T19:56:12.859Z,11.02
2022-11-16T19:58:39.766Z,11.10
2022-11-16T20:01:10.502Z,11.07
2022-11-16T20:03:38.797Z,11.05
2022-11-16T20:06:12.801Z,9.93
2022-11-16T20:08:41.654Z,10.38
2022-11-16T20:11:16.730Z,10.90
2022-11-16T20:13:43.888Z,11.45
2022-11-16T20:16:12.739Z,9.82
2022-11-16T20:18:41.117Z,10.77
2022-11-16T20:21:12.685Z,10.63
2022-11-16T20:23:39.390Z,10.35
2022-11-16T20:26:10.716Z,9.70
2022-11-16T20:28:39.273Z,10.73
2022-11-16T20:31:11.685Z,11.70
2022-11-16T20:33:38.701Z,11.20
2022-11-16T20:36:08.754Z,11.15
2022-11-16T20:38:36.994Z,11.18
2022-11-16T20:41:13.858Z,11.18
2022-11-16T20:43:41.732Z,12.35
2022-11-16T20:46:11.411Z,12.18
2022-11-16T20:48:39.600Z,12.65
2022-11-16T20:51:08.103Z,12.27
2022-11-16T20:53:35.456Z,11.55
2022-11-16T20:56:03.822Z,11.75
2022-11-16T20:58:31.753Z,11.95
2022-11-16T21:01:02.780Z,11.63
2022-11-16T21:03:29.769Z,11.90
2022-11-16T21:05:56.427Z,11.32
2022-11-16T21:08:25.634Z,11.77
2022-11-16T21:10:53.157Z,12.15
2022-11-16T21:13:38.889Z,11.70
2022-11-16T21:16:08.250Z,12.55
2022-11-16T21:18:34.993Z,11.32
2022-11-16T21:21:02.978Z,11.10
2022-11-16T21:23:32.472Z,11.65
2022-11-16T21:26:04.694Z,11.80
2022-11-16T21:28:31.789Z,11.30
2022-11-16T21:31:12.879Z,12.95
2022-11-16T21:33:39.885Z,13.20
2022-11-16T21:36:21.705Z,12.23
2022-11-16T21:38:48.856Z,13.40
2022-11-16T21:41:17.009Z,13.23
2022-11-16T21:43:44.257Z,12.20
2022-11-16T21:46:24.767Z,13.05
2022-11-16T21:48:52.847Z,12.23
2022-11-16T21:51:21.228Z,13.55
2022-11-16T21:53:48.609Z,13.50
2022-11-16T21:56:17.541Z,12.32
2022-11-16T21:58:44.832Z,13.32
2022-11-16T22:01:13.094Z,12.43
2022-11-16T22:03:39.934Z,12.88
2022-11-16T22:06:30.381Z,13.20
2022-11-16T22:08:57.070Z,13.10
2022-11-16T22:11:23.794Z,13.35
2022-11-16T22:13:50.908Z,13.80
2022-11-16T22:16:19.276Z,14.98
2022-11-16T22:18:46.021Z,14.27
2022-11-16T22:21:12.992Z,14.45
2022-11-16T22:23:40.016Z,16.30
2022-11-16T22:26:09.635Z,14.30
2022-11-16T22:28:37.258Z,14.57
2022-11-16T22:31:07.005Z,14.65
2022-11-16T22:33:34.338Z,14.55
2022-11-16T22:36:01.489Z,14.32
2022-11-16T22:38:28.560Z,14.63
2022-11-16T22:40:56.585Z,15.63
2022-11-16T22:43:26.537Z,14.63
2022-11-16T22:46:00.765Z,14.70
2022-11-16T22:51:19.351Z,14.82
2022-11-16T22:53:46.103Z,14.57
2022-11-16T22:56:13.207Z,14.48
2022-11-16T22:58:40.515Z,15.57
2022-11-16T23:01:08.464Z,14.05
2022-11-16T23:03:36.519Z,14.57
2022-11-16T23:06:04.608Z,14.80
2022-11-16T23:08:31.890Z,13.15
2022-11-16T23:11:18.410Z,14.02
2022-11-16T23:14:04.084Z,12.90
2022-11-16T23:16:31.112Z,14.38
2022-11-16T23:18:58.273Z,14.60
2022-11-16T23:21:43.772Z,13.18
2022-11-16T23:24:31.196Z,13.80
2022-11-16T23:27:19.074Z,14.15
2022-11-16T23:29:45.842Z,13.52
2022-11-16T23:32:12.501Z,14.18
2022-11-16T23:34:39.214Z,15.25
2022-11-16T23:37:06.790Z,14.57
2022-11-16T23:39:33.989Z,13.85
2022-11-16T23:42:19.408Z,14.15
2022-11-16T23:44:46.145Z,14.45
2022-11-16T23:47:12.824Z,14.05
2022-11-16T23:49:39.529Z,13.80
2022-11-16T23:52:06.246Z,14.77
2022-11-16T23:54:32.986Z,13.98
2022-11-16T23:56:59.768Z,13.68
2022-11-16T23:59:26.389Z,14.85
